createdAt,value
2018-12-25T00:00:26.600Z,23.3
2018-12-25T00:01:15.670Z,23.3
2018-12-25T00:02:06.305Z,23.3
2018-12-25T00:02:56.665Z,23.3
2018-12-25T00:03:45.842Z,23.3
2018-12-25T00:04:36.199Z,23.3
2018-12-25T00:05:26.765Z,23.3
2018-12-25T00:06:15.729Z,23.3
2018-12-25T00:07:06.979Z,23.3
2018-12-25T00:07:56.674Z,23.3
2018-12-25T00:08:46.464Z,23.3
2018-12-25T00:09:36.361Z,23.3
2018-12-25T00:10:26.939Z,23.3
2018-12-25T00:11:16.367Z,23.3
2018-12-25T00:12:07.109Z,23.3
2018-12-25T00:12:56.301Z,23.3
2018-12-25T00:13:47.054Z,23.3
2018-12-25T00:14:37.161Z,23.3
2018-12-25T00:32:46.798Z,23.2
2018-12-25T00:33:36.307Z,23.3
2018-12-25T00:34:26.085Z,23.2
2018-12-25T00:35:16.367Z,23.2
2018-12-25T00:36:05.890Z,23.2
2018-12-25T00:36:56.225Z,23.2
2018-12-25T00:37:46.352Z,23.2
2018-12-25T00:38:36.632Z,23.2
2018-12-25T00:39:26.238Z,23.2
2018-12-25T00:40:16.712Z,23.2
2018-12-25T00:41:06.806Z,23.2
2018-12-25T00:41:56.847Z,23.2
2018-12-25T00:42:47.443Z,23.2
2018-12-25T00:43:35.119Z,23.2
2018-12-25T00:44:26.756Z,23.2
2018-12-25T00:45:19.372Z,23.2
2018-12-25T00:46:07.137Z,23.2
2018-12-25T00:46:57.199Z,23.2
2018-12-25T00:47:47.515Z,23.2
2018-12-25T00:48:37.589Z,23.2
2018-12-25T00:49:27.075Z,23.2
2018-12-25T00:50:17.481Z,23.2
2018-12-25T00:51:07.265Z,23.1
2018-12-25T00:51:57.599Z,23.2
2018-12-25T00:52:48.223Z,23.2
2018-12-25T00:53:37.386Z,23.2
2018-12-25T00:54:28.018Z,23.2
2018-12-25T00:55:17.753Z,23.1
2018-12-25T00:56:07.546Z,23.2
2018-12-25T00:56:57.326Z,23.1
2018-12-25T00:57:47.453Z,23.2
2018-12-25T00:58:38.346Z,23.1
2018-12-25T00:59:27.600Z,23.1
2018-12-25T01:00:17.551Z,23.2
2018-12-25T01:01:08.173Z,23.1
2018-12-25T01:01:57.128Z,23.1
2018-12-25T01:02:47.728Z,23.1
2018-12-25T01:03:38.050Z,23.1
2018-12-25T01:04:28.375Z,23.2
2018-12-25T01:05:17.899Z,23.1
2018-12-25T01:06:08.402Z,23.1
2018-12-25T01:06:57.733Z,23.1
2018-12-25T01:07:48.700Z,23.1
2018-12-25T01:08:38.413Z,23.1
2018-12-25T01:09:28.195Z,23.1
2018-12-25T01:10:19.100Z,23.1
2018-12-25T01:11:09.223Z,23.1
2018-12-25T01:11:58.933Z,23.1
2018-12-25T01:12:48.973Z,23.1
2018-12-25T01:13:38.740Z,23.1
2018-12-25T01:14:28.829Z,23.1
2018-12-25T01:15:19.429Z,23.1
2018-12-25T01:16:09.028Z,23.1
2018-12-25T01:16:58.728Z,23.1
2018-12-25T01:17:49.050Z,23.1
2018-12-25T01:18:38.912Z,23.1
2018-12-25T01:19:29.410Z,23.1
2018-12-25T01:20:19.765Z,23.1
2018-12-25T01:21:09.295Z,23.1
2018-12-25T01:21:58.497Z,23.1
2018-12-25T01:22:49.665Z,23.1
2018-12-25T01:23:39.702Z,23.1
2018-12-25T01:24:29.822Z,23.1
2018-12-25T01:25:19.860Z,23.1
2018-12-25T01:26:09.910Z,23.1
2018-12-25T01:27:00.237Z,23.1
2018-12-25T01:27:50.309Z,23.1
2018-12-25T01:28:40.372Z,23.1
2018-12-25T01:29:30.497Z,23.1
2018-12-25T01:30:20.188Z,23.1
2018-12-25T01:31:10.322Z,23.1
2018-12-25T01:32:00.314Z,23.1
2018-12-25T01:32:50.663Z,23.1
2018-12-25T01:33:39.599Z,23.1
2018-12-25T01:34:30.234Z,23.1
2018-12-25T01:35:19.961Z,23.1
2018-12-25T01:36:10.604Z,23.1
2018-12-25T01:37:00.474Z,23.1
2018-12-25T01:37:49.957Z,23.1
2018-12-25T01:38:40.561Z,23.1
2018-12-25T01:39:30.021Z,23.1
2018-12-25T01:40:20.010Z,23.1
2018-12-25T01:41:10.993Z,23.1
2018-12-25T01:42:00.991Z,23.1
2018-12-25T01:42:50.510Z,23.1
2018-12-25T01:43:41.068Z,23.1
2018-12-25T01:44:30.960Z,23.1
2018-12-25T01:45:20.932Z,23.1
2018-12-25T01:46:10.991Z,23
2018-12-25T01:47:01.053Z,23.1
2018-12-25T01:47:51.389Z,23.1
2018-12-25T01:48:41.426Z,23
2018-12-25T01:49:38.226Z,23.1
2018-12-25T01:50:21.813Z,23
2018-12-25T01:51:11.686Z,23.1
2018-12-25T01:52:01.961Z,23
2018-12-25T01:52:52.050Z,23
2018-12-25T01:53:41.233Z,23
2018-12-25T01:54:31.545Z,23
2018-12-25T01:55:21.682Z,23
2018-12-25T01:56:11.220Z,23
2018-12-25T01:57:01.852Z,23
2018-12-25T01:57:51.777Z,23
2018-12-25T01:58:41.580Z,23
2018-12-25T01:59:31.920Z,23
2018-12-25T02:00:22.780Z,23
2018-12-25T02:01:12.302Z,23
2018-12-25T02:02:02.937Z,23
2018-12-25T02:02:52.126Z,23
2018-12-25T02:03:42.489Z,23
2018-12-25T02:04:32.529Z,23
2018-12-25T02:05:22.348Z,23.1
2018-12-25T02:06:12.942Z,23.1
2018-12-25T02:07:02.694Z,23.1
2018-12-25T02:07:52.479Z,23.1
2018-12-25T02:08:42.826Z,23.1
2018-12-25T02:09:32.874Z,23.1
2018-12-25T02:10:22.101Z,23.2
2018-12-25T02:11:13.286Z,23.2
2018-12-25T02:12:03.139Z,23.3
2018-12-25T02:12:52.554Z,23.3
2018-12-25T02:13:42.900Z,23.4
2018-12-25T02:14:32.717Z,23.4
2018-12-25T02:15:23.271Z,23.4
2018-12-25T02:16:12.483Z,23.5
2018-12-25T02:17:03.116Z,23.6
2018-12-25T02:17:53.453Z,23.7
2018-12-25T02:18:43.213Z,23.7
2018-12-25T02:19:41.104Z,23.8
2018-12-25T02:20:23.358Z,23.9
2018-12-25T02:21:13.681Z,23.9
2018-12-25T02:22:03.546Z,24
2018-12-25T02:22:53.816Z,24.1
2018-12-25T02:23:44.141Z,24.2
2018-12-25T02:24:33.641Z,24.3
2018-12-25T02:25:23.770Z,24.4
2018-12-25T02:26:14.031Z,24.5
2018-12-25T02:27:04.066Z,24.6
2018-12-25T02:27:54.410Z,24.7
2018-12-25T02:28:44.203Z,24.8
2018-12-25T02:29:34.217Z,24.9
2018-12-25T02:30:24.939Z,25.1
2018-12-25T02:31:14.281Z,25.2
2018-12-25T02:32:04.173Z,25.3
2018-12-25T02:32:54.571Z,25.4
2018-12-25T02:33:44.290Z,25.5
2018-12-25T02:34:34.943Z,25.6
2018-12-25T02:35:24.225Z,25.8
2018-12-25T02:36:15.275Z,25.9
2018-12-25T02:37:04.509Z,26
2018-12-25T02:37:54.894Z,26.1
2018-12-25T02:38:44.992Z,26.3
2018-12-25T02:39:34.692Z,26.4
2018-12-25T02:40:23.955Z,26.5
2018-12-25T02:41:14.949Z,26.6
2018-12-25T02:42:04.603Z,26.8
2018-12-25T02:42:54.778Z,26.8
2018-12-25T02:43:44.482Z,27
2018-12-25T02:44:35.395Z,27.1
2018-12-25T02:45:25.360Z,27.3
2018-12-25T02:46:16.005Z,27.4
2018-12-25T02:47:05.540Z,27.5
2018-12-25T02:47:55.287Z,27.6
2018-12-25T02:48:45.342Z,27.7
2018-12-25T02:50:25.608Z,27.9
2018-12-25T02:51:16.187Z,28.1
2018-12-25T02:52:05.831Z,28.2
2018-12-25T02:52:55.361Z,28.3
2018-12-25T02:53:45.669Z,28.4
2018-12-25T02:54:35.793Z,28.5
2018-12-25T02:55:26.079Z,28.6
2018-12-25T02:56:15.896Z,28.8
2018-12-25T02:57:05.931Z,28.9
2018-12-25T02:57:56.542Z,28.9
2018-12-25T02:58:46.006Z,29.1
2018-12-25T02:59:36.354Z,29.2
2018-12-25T03:00:24.929Z,29.3
2018-12-25T03:01:15.899Z,29.4
2018-12-25T03:02:05.580Z,29.5
2018-12-25T03:02:56.844Z,29.6
2018-12-25T03:03:47.064Z,29.8
2018-12-25T03:04:36.544Z,29.8
2018-12-25T03:05:26.564Z,29.9
2018-12-25T03:06:16.506Z,30
2018-12-25T03:07:07.133Z,30.1
2018-12-25T03:07:56.093Z,30.3
2018-12-25T03:08:46.781Z,30.4
2018-12-25T03:09:37.450Z,30.4
2018-12-25T03:10:27.071Z,30.6
2018-12-25T03:11:17.174Z,30.7
2018-12-25T03:12:07.242Z,30.8
2018-12-25T03:12:57.536Z,30.9
2018-12-25T03:13:47.525Z,31
2018-12-25T03:14:37.442Z,31.1
2018-12-25T03:15:27.226Z,31.3
2018-12-25T03:16:17.556Z,31.4
2018-12-25T03:17:07.818Z,31.5
2018-12-25T03:17:57.642Z,31.6
2018-12-25T03:18:46.936Z,31.8
2018-12-25T03:19:37.719Z,31.8
2018-12-25T03:20:27.245Z,31.9
2018-12-25T03:21:18.135Z,32.1
2018-12-25T03:22:07.667Z,32.2
2018-12-25T03:22:57.219Z,32.3
2018-12-25T03:23:47.448Z,32.4
2018-12-25T03:24:37.827Z,32.5
2018-12-25T03:25:27.991Z,32.6
2018-12-25T03:26:17.620Z,32.8
2018-12-25T03:27:08.769Z,32.9
2018-12-25T03:27:58.683Z,33
2018-12-25T03:28:48.899Z,33.1
2018-12-25T03:29:38.190Z,33.2
2018-12-25T03:30:28.433Z,33.3
2018-12-25T03:31:19.018Z,33.4
2018-12-25T03:32:09.400Z,33.5
2018-12-25T03:32:58.684Z,33.6
2018-12-25T03:33:48.955Z,33.6
2018-12-25T03:34:38.781Z,33.7
2018-12-25T03:35:28.612Z,33.8
2018-12-25T03:36:18.350Z,33.8
2018-12-25T03:37:08.389Z,33.9
2018-12-25T03:37:58.834Z,33.9
2018-12-25T03:38:48.894Z,33.9
2018-12-25T03:39:39.389Z,34
2018-12-25T03:40:29.434Z,34.1
2018-12-25T03:41:18.941Z,34.1
2018-12-25T03:42:09.374Z,34.1
2018-12-25T03:42:59.064Z,34.1
2018-12-25T03:43:49.141Z,34.2
2018-12-25T03:44:39.573Z,34.2
2018-12-25T03:45:28.953Z,34.2
2018-12-25T03:46:18.768Z,34.2
2018-12-25T03:47:09.399Z,34.2
2018-12-25T03:48:00.029Z,34.3
2018-12-25T03:48:49.756Z,34.3
2018-12-25T03:49:39.796Z,34.3
2018-12-25T03:50:30.121Z,34.3
2018-12-25T03:51:20.186Z,34.3
2018-12-25T03:52:10.355Z,34.3
2018-12-25T03:53:00.353Z,34.3
2018-12-25T03:53:49.599Z,34.3
2018-12-25T03:54:39.600Z,34.3
2018-12-25T03:55:30.699Z,34.4
2018-12-25T03:56:19.483Z,34.4
2018-12-25T03:57:09.766Z,34.4
2018-12-25T03:58:00.643Z,34.4
2018-12-25T03:58:50.171Z,34.4
2018-12-25T03:59:40.503Z,34.4
2018-12-25T04:00:30.396Z,34.4
2018-12-25T04:01:20.041Z,34.4
2018-12-25T04:02:10.427Z,34.4
2018-12-25T04:03:00.995Z,34.4
2018-12-25T04:03:50.813Z,34.4
2018-12-25T04:04:40.820Z,34.4
2018-12-25T04:05:31.283Z,34.4
2018-12-25T04:06:20.773Z,34.4
2018-12-25T04:07:11.323Z,34.4
2018-12-25T04:08:00.537Z,34.4
2018-12-25T04:08:51.158Z,34.4
2018-12-25T04:09:41.249Z,34.5
2018-12-25T04:10:30.420Z,34.5
2018-12-25T04:11:21.097Z,34.5
2018-12-25T04:12:10.545Z,34.6
2018-12-25T04:13:01.157Z,34.6
2018-12-25T04:13:51.580Z,34.6
2018-12-25T04:14:41.768Z,34.6
2018-12-25T04:15:31.878Z,34.6
2018-12-25T04:16:21.659Z,34.6
2018-12-25T04:17:11.422Z,34.6
2018-12-25T04:18:01.764Z,34.6
2018-12-25T04:18:51.806Z,34.6
2018-12-25T04:19:41.581Z,34.6
2018-12-25T04:20:31.915Z,34.6
2018-12-25T04:21:21.331Z,34.6
2018-12-25T04:22:12.019Z,34.6
2018-12-25T04:23:02.362Z,34.6
2018-12-25T04:23:52.454Z,34.6
2018-12-25T04:24:42.215Z,34.6
2018-12-25T04:25:32.324Z,34.6
2018-12-25T04:26:21.484Z,34.6
2018-12-25T04:27:12.392Z,34.6
2018-12-25T04:28:02.419Z,34.6
2018-12-25T04:28:52.477Z,34.6
2018-12-25T04:29:42.818Z,34.6
2018-12-25T04:30:32.948Z,34.6
2018-12-25T04:31:22.329Z,34.6
2018-12-25T04:32:12.704Z,34.6
2018-12-25T04:33:02.757Z,34.6
2018-12-25T04:33:52.524Z,34.6
2018-12-25T04:34:42.311Z,34.6
2018-12-25T04:35:32.991Z,34.6
2018-12-25T04:36:22.981Z,34.6
2018-12-25T04:37:13.321Z,34.6
2018-12-25T04:38:02.623Z,34.6
2018-12-25T04:38:53.218Z,34.6
2018-12-25T04:39:43.270Z,34.6
2018-12-25T04:40:33.297Z,34.6
2018-12-25T04:41:23.621Z,34.6
2018-12-25T04:42:12.374Z,34.6
2018-12-25T04:43:03.275Z,34.6
2018-12-25T04:43:53.522Z,34.5
2018-12-25T04:44:43.290Z,34.4
2018-12-25T05:01:58.921Z,34.3
2018-12-25T05:02:48.733Z,34.4
2018-12-25T05:03:39.844Z,34.4
2018-12-25T05:04:29.118Z,34.3
2018-12-25T05:05:18.884Z,34.3
2018-12-25T05:06:09.247Z,34.3
2018-12-25T05:06:59.950Z,34.3
2018-12-25T05:07:49.625Z,34.3
2018-12-25T05:08:39.903Z,34.3
2018-12-25T05:09:30.459Z,34.4
2018-12-25T05:10:19.854Z,34.3
2018-12-25T05:11:10.080Z,34.3
2018-12-25T05:11:59.873Z,34.3
2018-12-25T05:12:49.911Z,34.3
2018-12-25T05:13:39.943Z,34.3
2018-12-25T05:14:30.755Z,34.3
2018-12-25T05:15:20.305Z,34.3
2018-12-25T05:16:10.386Z,34.3
2018-12-25T05:17:00.708Z,34.3
2018-12-25T05:17:51.015Z,34.3
2018-12-25T05:18:40.275Z,34.3
2018-12-25T05:19:30.605Z,34.3
2018-12-25T05:20:19.829Z,34.3
2018-12-25T05:21:09.608Z,34.3
2018-12-25T05:22:01.366Z,34.3
2018-12-25T05:22:50.918Z,34.3
2018-12-25T05:23:40.617Z,34.3
2018-12-25T05:24:30.657Z,34.3
2018-12-25T05:25:20.827Z,34.3
2018-12-25T05:26:10.789Z,34.3
2018-12-25T05:27:00.822Z,34.3
2018-12-25T05:27:51.205Z,34.3
2018-12-25T05:28:41.239Z,34.3
2018-12-25T05:29:31.089Z,34.3
2018-12-25T05:30:20.766Z,34.3
2018-12-25T05:31:10.589Z,34.3
2018-12-25T05:32:00.627Z,34.3
2018-12-25T05:32:51.553Z,34.3
2018-12-25T05:33:41.074Z,34.3
2018-12-25T05:34:31.689Z,34.3
2018-12-25T05:35:20.882Z,34.3
2018-12-25T05:36:11.506Z,34.3
2018-12-25T05:37:01.556Z,34.3
2018-12-25T05:37:51.892Z,34.2
2018-12-25T05:38:42.017Z,34.3
2018-12-25T05:39:31.779Z,34.2
2018-12-25T05:40:21.400Z,34.2
2018-12-25T05:41:11.394Z,34.2
2018-12-25T05:42:01.401Z,34.2
2018-12-25T05:42:51.997Z,34.2
2018-12-25T05:43:42.251Z,34.2
2018-12-25T05:44:32.386Z,34.2
2018-12-25T05:45:22.716Z,34.2
2018-12-25T05:46:12.826Z,34.2
2018-12-25T05:47:02.241Z,34.1
2018-12-25T05:47:52.572Z,34.1
2018-12-25T05:48:42.300Z,34.2
2018-12-25T05:49:32.403Z,34.1
2018-12-25T05:50:22.721Z,34.1
2018-12-25T05:51:12.795Z,34.1
2018-12-25T05:52:02.295Z,34.1
2018-12-25T05:52:52.896Z,34.1
2018-12-25T05:53:43.232Z,34.1
2018-12-25T05:54:32.450Z,34.1
2018-12-25T05:55:24.750Z,34.1
2018-12-25T05:56:13.398Z,34.1
2018-12-25T05:57:03.567Z,34.1
2018-12-25T05:57:52.816Z,34.1
2018-12-25T05:58:43.542Z,34.1
2018-12-25T05:59:33.140Z,34.1
2018-12-25T06:00:23.207Z,34.1
2018-12-25T06:01:12.170Z,34.1
2018-12-25T06:02:02.833Z,34.1
2018-12-25T06:02:52.272Z,34.1
2018-12-25T06:03:43.748Z,34.1
2018-12-25T06:04:33.558Z,34.1
2018-12-25T06:05:22.172Z,34
2018-12-25T06:06:11.935Z,34
2018-12-25T06:07:02.942Z,33.9
2018-12-25T06:07:53.801Z,33.9
2018-12-25T06:08:45.474Z,33.9
2018-12-25T06:09:34.140Z,33.9
2018-12-25T06:10:23.910Z,33.9
2018-12-25T06:11:13.670Z,33.9
2018-12-25T06:12:03.194Z,33.9
2018-12-25T06:12:53.495Z,33.9
2018-12-25T06:13:44.137Z,33.9
2018-12-25T06:14:34.178Z,33.9
2018-12-25T06:15:24.707Z,33.9
2018-12-25T06:16:14.270Z,33.9
2018-12-25T06:17:04.559Z,33.9
2018-12-25T06:17:54.139Z,33.9
2018-12-25T06:18:44.982Z,33.9
2018-12-25T06:19:34.447Z,33.9
2018-12-25T06:20:24.839Z,33.9
2018-12-25T06:21:14.083Z,33.9
2018-12-25T06:22:04.057Z,33.9
2018-12-25T06:22:54.907Z,33.9
2018-12-25T06:23:44.976Z,33.9
2018-12-25T06:24:34.774Z,33.9
2018-12-25T06:25:25.216Z,33.9
2018-12-25T06:26:15.173Z,33.9
2018-12-25T06:27:04.991Z,33.9
2018-12-25T06:27:54.743Z,33.9
2018-12-25T06:28:45.381Z,33.9
2018-12-25T06:29:35.669Z,33.9
2018-12-25T06:30:25.485Z,33.9
2018-12-25T06:31:15.237Z,33.8
2018-12-25T06:32:04.278Z,33.8
2018-12-25T06:32:54.335Z,33.8
2018-12-25T06:33:45.691Z,33.8
2018-12-25T06:34:35.201Z,33.8
2018-12-25T06:35:26.138Z,33.8
2018-12-25T06:36:15.911Z,33.8
2018-12-25T06:37:05.661Z,33.8
2018-12-25T06:37:54.748Z,33.8
2018-12-25T06:38:45.556Z,33.8
2018-12-25T06:39:35.908Z,33.8
2018-12-25T06:40:25.673Z,33.8
2018-12-25T06:41:15.670Z,33.8
2018-12-25T06:42:06.273Z,33.8
2018-12-25T06:42:56.595Z,33.8
2018-12-25T06:43:46.982Z,33.8
2018-12-25T06:44:36.422Z,33.8
2018-12-25T06:45:25.445Z,33.8
2018-12-25T06:46:16.550Z,33.7
2018-12-25T06:47:06.405Z,33.8
2018-12-25T06:47:56.272Z,33.8
2018-12-25T06:48:46.212Z,33.7
2018-12-25T06:49:36.042Z,33.7
2018-12-25T06:50:25.807Z,33.7
2018-12-25T06:51:16.820Z,33.7
2018-12-25T06:52:06.747Z,33.7
2018-12-25T06:52:55.804Z,33.7
2018-12-25T06:53:46.770Z,33.7
2018-12-25T06:54:39.392Z,33.7
2018-12-25T06:55:26.987Z,33.7
2018-12-25T06:56:16.549Z,33.6
2018-12-25T06:57:07.077Z,33.6
2018-12-25T06:57:56.966Z,33.6
2018-12-25T06:58:46.654Z,33.6
2018-12-25T06:59:37.340Z,33.6
2018-12-25T07:00:27.079Z,33.6
2018-12-25T07:01:17.077Z,33.6
2018-12-25T07:02:06.351Z,33.6
2018-12-25T07:02:57.206Z,33.6
2018-12-25T07:03:46.821Z,33.6
2018-12-25T07:04:37.661Z,33.6
2018-12-25T07:05:27.641Z,33.6
2018-12-25T07:06:16.321Z,33.6
2018-12-25T07:07:07.675Z,33.6
2018-12-25T07:07:57.079Z,33.6
2018-12-25T07:08:47.443Z,33.6
2018-12-25T07:09:37.978Z,33.6
2018-12-25T07:10:28.011Z,33.6
2018-12-25T07:11:17.570Z,33.6
2018-12-25T07:12:07.361Z,33.6
2018-12-25T07:12:57.438Z,33.6
2018-12-25T07:13:48.221Z,33.5
2018-12-25T07:14:37.086Z,33.6
2018-12-25T07:15:37.165Z,33.6
2018-12-25T07:16:18.610Z,33.6
2018-12-25T07:17:08.628Z,33.5
2018-12-25T07:17:58.732Z,33.5
2018-12-25T07:18:48.220Z,33.6
2018-12-25T07:19:38.944Z,33.5
2018-12-25T07:20:30.387Z,33.5
2018-12-25T07:21:18.677Z,33.4
2018-12-25T07:22:07.939Z,33.5
2018-12-25T07:22:58.287Z,33.5
2018-12-25T07:23:48.714Z,33.4
2018-12-25T07:24:39.159Z,33.4
2018-12-25T07:25:29.604Z,33.4
2018-12-25T07:26:19.536Z,33.4
2018-12-25T07:27:09.068Z,33.4
2018-12-25T07:27:59.506Z,33.4
2018-12-25T07:28:48.626Z,33.4
2018-12-25T07:29:38.964Z,33.4
2018-12-25T07:30:28.894Z,33.4
2018-12-25T07:31:19.601Z,33.4
2018-12-25T07:32:09.931Z,33.4
2018-12-25T07:32:59.531Z,33.4
2018-12-25T07:33:49.368Z,33.4
2018-12-25T07:34:39.916Z,33.4
2018-12-25T07:35:30.283Z,33.4
2018-12-25T07:36:19.785Z,33.4
2018-12-25T07:37:09.285Z,33.4
2018-12-25T07:37:59.348Z,33.4
2018-12-25T07:38:49.850Z,33.4
2018-12-25T07:39:39.905Z,33.4
2018-12-25T07:40:30.045Z,33.4
2018-12-25T07:41:19.889Z,33.3
2018-12-25T07:42:10.758Z,33.3
2018-12-25T07:43:00.467Z,33.3
2018-12-25T07:43:50.472Z,33.3
2018-12-25T07:44:40.541Z,33.3
2018-12-25T07:45:30.347Z,33.3
2018-12-25T07:46:19.537Z,33.3
2018-12-25T07:47:12.265Z,33.3
2018-12-25T07:48:00.490Z,33.2
2018-12-25T07:48:50.592Z,33.2
2018-12-25T07:49:40.107Z,33.2
2018-12-25T07:50:31.462Z,33.2
2018-12-25T07:51:26.766Z,33.2
2018-12-25T07:52:11.244Z,33.2
2018-12-25T07:53:01.162Z,33.2
2018-12-25T07:53:50.879Z,33.2
2018-12-25T07:54:41.497Z,33.2
2018-12-25T07:55:31.042Z,33.1
2018-12-25T07:56:21.114Z,33.2
2018-12-25T07:57:11.114Z,33.1
2018-12-25T07:58:00.895Z,33.2
2018-12-25T07:58:50.287Z,33.1
2018-12-25T07:59:41.019Z,33.2
2018-12-25T08:00:31.181Z,33.2
2018-12-25T08:01:21.564Z,33.2
2018-12-25T08:02:11.996Z,33.2
2018-12-25T08:03:01.839Z,33.2
2018-12-25T08:03:52.085Z,33.2
2018-12-25T08:04:40.524Z,33.2
2018-12-25T08:05:31.257Z,33.2
2018-12-25T08:06:22.041Z,33.1
2018-12-25T08:07:12.357Z,33.1
2018-12-25T08:08:01.858Z,33.1
2018-12-25T08:08:52.265Z,33.1
2018-12-25T08:09:42.521Z,33.1
2018-12-25T08:10:32.367Z,33.1
2018-12-25T08:11:22.367Z,33.1
2018-12-25T08:12:12.785Z,33.1
2018-12-25T08:13:02.482Z,33.1
2018-12-25T08:13:52.536Z,33.1
2018-12-25T08:14:42.332Z,33.1
2018-12-25T08:15:32.178Z,33.1
2018-12-25T08:16:22.960Z,33.1
2018-12-25T08:17:12.703Z,33.1
2018-12-25T08:18:03.086Z,33.1
2018-12-25T08:18:52.873Z,33.1
2018-12-25T08:19:43.240Z,33.1
2018-12-25T08:20:32.171Z,33
2018-12-25T08:21:31.668Z,33
2018-12-25T08:22:13.077Z,33
2018-12-25T08:23:08.391Z,33
2018-12-25T08:23:53.175Z,33
2018-12-25T08:24:43.638Z,33
2018-12-25T08:25:33.328Z,33
2018-12-25T08:26:23.100Z,33
2018-12-25T08:27:13.448Z,33
2018-12-25T08:28:02.393Z,33
2018-12-25T08:28:53.013Z,33
2018-12-25T08:29:42.497Z,32.9
2018-12-25T08:30:33.098Z,32.9
2018-12-25T08:31:23.175Z,33
2018-12-25T08:32:13.460Z,33
2018-12-25T08:33:03.650Z,33
2018-12-25T08:33:53.627Z,32.9
2018-12-25T08:34:44.222Z,32.9
2018-12-25T08:35:34.257Z,32.9
2018-12-25T08:36:24.179Z,32.9
2018-12-25T08:37:14.394Z,32.9
2018-12-25T08:38:03.914Z,32.9
2018-12-25T08:38:54.291Z,32.9
2018-12-25T08:39:43.817Z,32.9
2018-12-25T08:40:34.357Z,32.9
2018-12-25T08:41:24.416Z,32.9
2018-12-25T08:42:14.226Z,32.9
2018-12-25T08:43:03.964Z,32.9
2018-12-25T08:43:54.646Z,32.9
2018-12-25T08:44:43.895Z,32.9
2018-12-25T08:45:34.420Z,32.9
2018-12-25T08:46:24.751Z,32.9
2018-12-25T08:47:16.982Z,32.9
2018-12-25T08:48:04.851Z,32.9
2018-12-25T08:48:54.919Z,32.9
2018-12-25T08:49:45.254Z,32.9
2018-12-25T08:50:34.218Z,32.9
2018-12-25T08:51:25.046Z,32.9
2018-12-25T08:52:14.866Z,32.9
2018-12-25T08:53:05.183Z,32.9
2018-12-25T08:53:55.326Z,32.9
2018-12-25T08:54:45.033Z,32.9
2018-12-25T08:55:35.254Z,32.9
2018-12-25T08:56:24.601Z,32.9
2018-12-25T08:57:14.942Z,32.9
2018-12-25T08:58:05.296Z,32.9
2018-12-25T08:58:55.908Z,32.9
2018-12-25T08:59:45.911Z,32.9
2018-12-25T09:00:35.163Z,32.9
2018-12-25T09:16:25.929Z,32.8
2018-12-25T09:17:16.260Z,32.8
2018-12-25T09:18:05.595Z,32.8
2018-12-25T09:18:56.090Z,32.8
2018-12-25T09:19:46.163Z,32.8
2018-12-25T09:20:35.922Z,32.8
2018-12-25T09:21:27.399Z,32.8
2018-12-25T09:22:15.900Z,32.8
2018-12-25T09:23:06.089Z,32.8
2018-12-25T09:23:56.228Z,32.8
2018-12-25T09:24:46.249Z,32.8
2018-12-25T09:25:36.004Z,32.8
2018-12-25T09:26:27.451Z,32.7
2018-12-25T09:27:16.376Z,32.8
2018-12-25T09:28:06.721Z,32.7
2018-12-25T09:28:56.764Z,32.7
2018-12-25T09:29:45.981Z,32.7
2018-12-25T09:30:36.594Z,32.6
2018-12-25T09:31:27.704Z,32.7
2018-12-25T09:32:16.989Z,32.7
2018-12-25T09:33:07.154Z,32.7
2018-12-25T09:33:56.556Z,32.7
2018-12-25T09:34:49.007Z,32.8
2018-12-25T09:35:37.026Z,32.7
2018-12-25T09:36:26.957Z,32.7
2018-12-25T09:37:17.609Z,32.7
2018-12-25T09:38:07.145Z,32.7
2018-12-25T09:38:57.191Z,32.7
2018-12-25T09:39:47.203Z,32.7
2018-12-25T09:40:37.006Z,32.7
2018-12-25T09:41:27.609Z,32.7
2018-12-25T09:42:17.525Z,32.7
2018-12-25T09:43:07.208Z,32.6
2018-12-25T09:43:57.803Z,32.7
2018-12-25T09:44:47.836Z,32.6
2018-12-25T09:45:37.374Z,32.6
2018-12-25T09:46:26.777Z,32.6
2018-12-25T09:47:17.517Z,32.6
2018-12-25T09:48:16.179Z,32.6
2018-12-25T09:48:57.355Z,27
2018-12-25T09:49:47.701Z,18.3
2018-12-25T09:50:38.028Z,28.2
2018-12-25T09:51:27.855Z,35.3
2018-12-25T09:52:17.918Z,37.4
2018-12-25T09:53:07.657Z,37.5
2018-12-25T09:53:57.979Z,37.4
2018-12-25T09:54:47.700Z,37
2018-12-25T09:55:38.297Z,36.8
2018-12-25T09:56:28.345Z,36.5
2018-12-25T09:57:19.182Z,36.3
2018-12-25T09:58:08.487Z,36.1
2018-12-25T09:58:58.810Z,35.9
2018-12-25T09:59:48.603Z,35.8
2018-12-25T10:00:40.465Z,35.7
2018-12-25T10:01:29.252Z,34.3
2018-12-25T10:02:18.476Z,35.5
2018-12-25T10:03:09.359Z,43.6
2018-12-25T10:03:59.231Z,47.9
2018-12-25T10:04:48.911Z,47.8
2018-12-25T10:05:39.527Z,45.8
2018-12-25T10:06:29.679Z,44.3
2018-12-25T10:07:19.169Z,44
2018-12-25T10:08:09.174Z,44.3
2018-12-25T10:08:59.224Z,44.4
2018-12-25T10:09:48.621Z,44.1
2018-12-25T10:10:39.459Z,43.3
2018-12-25T10:11:29.543Z,42.3
2018-12-25T10:12:20.064Z,41.4
2018-12-25T10:13:08.774Z,40.9
2018-12-25T10:13:59.128Z,40.9
2018-12-25T10:14:50.244Z,41.7
2018-12-25T10:15:39.776Z,42.9
2018-12-25T10:16:29.766Z,43.8
2018-12-25T10:17:20.626Z,43.6
2018-12-25T10:18:09.471Z,42.8
2018-12-25T10:19:00.488Z,41.8
2018-12-25T10:19:50.048Z,40.8
2018-12-25T10:20:40.308Z,40.1
2018-12-25T10:21:30.666Z,39.8
2018-12-25T10:22:20.153Z,39.6
2018-12-25T10:23:10.266Z,39.4
2018-12-25T10:24:00.299Z,39.1
2018-12-25T10:24:52.851Z,38.8
2018-12-25T10:25:40.413Z,38.4
2018-12-25T10:26:30.500Z,38
2018-12-25T10:27:20.045Z,37.6
2018-12-25T10:28:10.383Z,37.3
2018-12-25T10:29:01.113Z,37
2018-12-25T10:29:49.589Z,36.7
2018-12-25T10:30:40.959Z,36.4
2018-12-25T10:31:30.627Z,36.2
2018-12-25T10:32:21.053Z,36
2018-12-25T10:33:10.360Z,35.8
2018-12-25T10:34:00.425Z,35.6
2018-12-25T10:34:50.707Z,35.4
2018-12-25T10:35:40.465Z,34.6
2018-12-25T10:36:31.635Z,34.1
2018-12-25T10:37:20.684Z,33.7
2018-12-25T10:38:11.785Z,33.4
2018-12-25T10:39:01.054Z,33.2
2018-12-25T10:39:51.150Z,32.9
2018-12-25T10:40:41.095Z,32.8
2018-12-25T10:41:31.131Z,32.7
2018-12-25T10:42:22.097Z,32.6
2018-12-25T10:43:11.574Z,32.5
2018-12-25T10:44:01.686Z,32.5
2018-12-25T10:44:51.896Z,32.4
2018-12-25T10:45:40.416Z,32.4
2018-12-25T10:46:31.299Z,32.4
2018-12-25T10:47:20.854Z,32.3
2018-12-25T10:48:11.220Z,32.3
2018-12-25T10:49:01.754Z,32.3
2018-12-25T10:49:51.034Z,32.2
2018-12-25T10:50:44.039Z,32.2
2018-12-25T10:51:31.902Z,32.2
2018-12-25T10:52:21.488Z,32.2
2018-12-25T10:53:11.991Z,32.2
2018-12-25T10:54:02.438Z,32.2
2018-12-25T10:54:52.264Z,32.1
2018-12-25T10:55:42.448Z,32.1
2018-12-25T10:56:32.238Z,32.1
2018-12-25T10:57:23.028Z,32.1
2018-12-25T10:58:12.929Z,32
2018-12-25T10:59:01.873Z,31.9
2018-12-25T10:59:52.942Z,31.9
2018-12-25T11:00:42.740Z,31.9
2018-12-25T11:01:33.160Z,31.9
2018-12-25T11:02:23.400Z,31.9
2018-12-25T11:03:15.023Z,31.8
2018-12-25T11:04:03.200Z,31.8
2018-12-25T11:04:53.255Z,31.8
2018-12-25T11:05:43.332Z,31.8
2018-12-25T11:06:33.405Z,31.8
2018-12-25T11:07:23.553Z,31.7
2018-12-25T11:08:12.960Z,31.7
2018-12-25T11:09:03.792Z,31.6
2018-12-25T11:09:53.980Z,31.6
2018-12-25T11:10:43.417Z,31.6
2018-12-25T11:11:34.118Z,31.6
2018-12-25T11:12:24.065Z,31.6
2018-12-25T11:13:13.375Z,31.5
2018-12-25T11:14:03.155Z,31.5
2018-12-25T11:14:53.454Z,31.5
2018-12-25T11:15:43.502Z,31.4
2018-12-25T11:16:34.076Z,31.4
2018-12-25T11:17:23.635Z,31.4
2018-12-25T11:18:13.722Z,31.4
2018-12-25T11:19:04.249Z,31.4
2018-12-25T11:19:53.467Z,31.3
2018-12-25T11:20:44.439Z,31.3
2018-12-25T11:21:34.697Z,31.3
2018-12-25T11:22:25.047Z,31.3
2018-12-25T11:23:14.854Z,31.3
2018-12-25T11:24:04.052Z,31.3
2018-12-25T11:24:54.653Z,31.3
2018-12-25T11:25:44.669Z,31.2
2018-12-25T11:26:34.795Z,31.2
2018-12-25T11:27:24.816Z,31.2
2018-12-25T11:28:14.857Z,31.1
2018-12-25T11:29:04.694Z,31.1
2018-12-25T11:29:54.737Z,31.1
2018-12-25T11:30:45.054Z,31.1
2018-12-25T11:31:35.132Z,31.1
2018-12-25T11:32:25.449Z,31.1
2018-12-25T11:33:15.221Z,31
2018-12-25T11:34:07.618Z,31
2018-12-25T11:34:54.913Z,31
2018-12-25T11:35:45.149Z,30.9
2018-12-25T11:36:35.181Z,30.9
2018-12-25T11:37:24.758Z,30.9
2018-12-25T11:38:14.728Z,30.9
2018-12-25T11:39:05.344Z,30.8
2018-12-25T11:39:55.881Z,30.8
2018-12-25T11:40:45.468Z,30.8
2018-12-25T11:41:35.553Z,30.7
2018-12-25T11:42:25.290Z,30.6
2018-12-25T11:43:15.170Z,30.6
2018-12-25T11:44:05.767Z,30.5
2018-12-25T11:44:55.761Z,30.4
2018-12-25T11:45:45.778Z,30.4
2018-12-25T11:46:36.430Z,30.4
2018-12-25T11:47:25.930Z,30.3
2018-12-25T11:48:16.269Z,30.3
2018-12-25T11:49:06.050Z,30.2
2018-12-25T11:49:55.832Z,30.2
2018-12-25T11:50:45.683Z,30.1
2018-12-25T11:51:36.530Z,30.1
2018-12-25T11:52:34.044Z,30.1
2018-12-25T11:53:16.695Z,30
2018-12-25T11:54:07.004Z,30
2018-12-25T11:54:56.445Z,29.9
2018-12-25T11:55:46.562Z,29.9
2018-12-25T11:56:36.908Z,29.9
2018-12-25T11:57:27.167Z,29.9
2018-12-25T11:58:17.871Z,29.9
2018-12-25T11:59:07.322Z,29.8